Manhattan, Indiana
Current Conditions -  °F | °C
As of 8:55 PM on Monday 24 Nov 2014 (Local Time) from K4I7 Reporting Station
Overcast Overcast  
Wind Chill: -3°   Ceiling: 3600
Heat Index:   Visibility: 10mi
Dew Point: -2°   Wind: 13mph
Humidity: 75%   Direction: 250°WSW
Pressure: 29.87"   Gusts: 20mph
Location:  39.6767°N, 86.9214°W
Report Text: K4I7 250155Z AUTO 25011G17KT 10SM SCT031 BKN036 OVC070 02/M02 A2987 RMK AO2
Loading
Personal Weather Stations






























Interactive Weather Map New forecast layout! Learn more

10-Day Weather Forecast

Advertisements
Track Severe Weather on mobile